createdAt,value
2023-04-25T00:02:08.344Z,88.55
2023-04-25T00:04:39.934Z,88.78
2023-04-25T00:07:09.774Z,89.62
2023-04-25T00:09:39.634Z,89.32
2023-04-25T00:12:10.040Z,89.37
2023-04-25T00:14:39.473Z,89.94
2023-04-25T00:17:10.445Z,89.75
2023-04-25T00:19:41.084Z,90.03
2023-04-25T00:22:10.557Z,91.13
2023-04-25T00:24:39.729Z,91.62
2023-04-25T00:27:09.081Z,91.22
2023-04-25T00:29:38.068Z,91.65
2023-04-25T00:32:07.196Z,92.21
2023-04-25T00:34:37.363Z,92.33
2023-04-25T00:37:09.035Z,91.91
2023-04-25T00:39:38.096Z,91.59
2023-04-25T00:42:09.474Z,91.54
2023-04-25T00:44:40.017Z,91.64
2023-04-25T00:47:12.955Z,91.74
2023-04-25T00:49:42.322Z,92.07
2023-04-25T00:52:13.132Z,92.35
2023-04-25T00:54:42.744Z,91.97
2023-04-25T00:57:12.855Z,92.05
2023-04-25T00:59:47.183Z,92.08
2023-04-25T01:02:18.864Z,91.81
2023-04-25T01:04:49.864Z,92.17
2023-04-25T01:07:20.421Z,92.26
2023-04-25T01:09:52.812Z,93.00
2023-04-25T01:12:22.822Z,92.56
2023-04-25T01:14:51.720Z,92.13
2023-04-25T01:17:22.515Z,92.43
2023-04-25T01:19:53.001Z,92.49
2023-04-25T01:22:22.989Z,92.72
2023-04-25T01:24:55.201Z,93.14
2023-04-25T01:27:24.593Z,92.89
2023-04-25T01:29:57.095Z,92.97
2023-04-25T01:32:27.987Z,93.04
2023-04-25T01:34:58.022Z,92.49
2023-04-25T01:37:32.089Z,92.45
2023-04-25T01:40:02.718Z,92.53
2023-04-25T01:42:35.082Z,92.22
2023-04-25T01:45:05.762Z,92.27
2023-04-25T01:47:39.097Z,92.12
2023-04-25T01:50:11.166Z,92.04
2023-04-25T01:52:41.353Z,91.78
2023-04-25T01:55:12.451Z,92.20
2023-04-25T01:57:49.633Z,91.90
2023-04-25T02:00:21.260Z,92.29
2023-04-25T02:02:52.151Z,93.02
2023-04-25T02:05:39.050Z,93.14
2023-04-25T02:08:11.081Z,92.58
2023-04-25T02:10:40.983Z,92.38
2023-04-25T02:13:18.629Z,92.60
2023-04-25T02:16:07.560Z,92.46
2023-04-25T02:18:39.396Z,92.42
2023-04-25T02:21:09.617Z,93.65
2023-04-25T02:23:39.146Z,93.47
2023-04-25T02:26:10.268Z,93.01
2023-04-25T02:28:39.787Z,93.37
2023-04-25T02:31:09.960Z,93.27
2023-04-25T02:33:39.606Z,93.25
2023-04-25T02:36:09.204Z,93.68
2023-04-25T02:38:38.897Z,93.69
2023-04-25T02:41:08.954Z,94.00
2023-04-25T02:43:38.694Z,94.06
2023-04-25T02:46:11.173Z,93.96
2023-04-25T02:48:42.302Z,94.23
2023-04-25T02:51:11.936Z,94.82
2023-04-25T02:53:41.264Z,94.62
2023-04-25T02:56:12.079Z,94.56
2023-04-25T02:58:41.673Z,94.48
2023-04-25T03:01:11.916Z,93.94
2023-04-25T03:03:41.482Z,93.72
2023-04-25T03:06:11.025Z,94.45
2023-04-25T03:08:41.076Z,94.53
2023-04-25T03:11:11.700Z,94.15
2023-04-25T03:13:41.648Z,93.40
2023-04-25T03:16:12.668Z,93.54
2023-04-25T03:18:46.580Z,93.63
2023-04-25T03:21:16.725Z,94.48
2023-04-25T03:23:46.270Z,94.02
2023-04-25T03:26:17.004Z,93.61
2023-04-25T03:28:46.858Z,93.27
2023-04-25T03:31:16.885Z,93.46
2023-04-25T03:33:47.334Z,93.31
2023-04-25T03:36:21.135Z,94.09
2023-04-25T03:38:51.417Z,94.56
2023-04-25T03:41:24.218Z,94.54
2023-04-25T03:44:02.125Z,94.46
2023-04-25T03:46:33.347Z,94.04
2023-04-25T03:49:02.873Z,94.60
2023-04-25T03:51:49.647Z,94.56
2023-04-25T03:54:19.816Z,94.40
2023-04-25T03:56:58.412Z,94.24
2023-04-25T03:59:30.196Z,94.31
2023-04-25T04:01:59.892Z,94.38
2023-04-25T04:04:29.286Z,94.19
2023-04-25T04:06:59.114Z,94.69
2023-04-25T04:09:33.027Z,94.98
2023-04-25T04:12:06.616Z,95.23
2023-04-25T04:14:36.962Z,95.27
2023-04-25T04:17:07.340Z,94.13
2023-04-25T04:19:37.831Z,93.93
2023-04-25T04:22:13.333Z,94.40
2023-04-25T04:24:47.781Z,94.62
2023-04-25T04:27:23.889Z,93.94
2023-04-25T04:30:30.853Z,94.60
2023-04-25T04:33:05.037Z,94.53
2023-04-25T04:35:35.227Z,95.09
2023-04-25T04:38:06.315Z,95.28
2023-04-25T04:40:37.535Z,94.73
2023-04-25T04:43:34.830Z,94.42
2023-04-25T04:46:29.695Z,94.54
2023-04-25T04:49:17.596Z,93.77
2023-04-25T04:52:01.827Z,95.24
2023-04-25T04:54:55.916Z,94.55
2023-04-25T04:58:00.272Z,94.60
2023-04-25T05:00:51.997Z,95.03
2023-04-25T05:04:02.341Z,94.81
2023-04-25T05:06:55.471Z,94.65
2023-04-25T05:09:44.239Z,94.45
2023-04-25T05:12:13.396Z,94.18
2023-04-25T05:15:21.724Z,94.37
2023-04-25T05:18:15.073Z,94.50
2023-04-25T05:20:56.073Z,94.01
2023-04-25T05:23:50.936Z,93.73
2023-04-25T05:26:39.980Z,93.70
2023-04-25T05:29:25.511Z,93.41
2023-04-25T05:32:07.291Z,93.19
2023-04-25T05:34:38.302Z,92.87
2023-04-25T05:37:11.531Z,91.86
2023-04-25T05:39:52.770Z,92.17
2023-04-25T05:42:46.314Z,92.39
2023-04-25T05:45:48.470Z,92.10
2023-04-25T05:48:34.085Z,91.19
2023-04-25T05:51:14.282Z,90.65
2023-04-25T05:54:01.600Z,90.97
2023-04-25T05:56:31.213Z,90.83
2023-04-25T05:59:05.260Z,90.35
2023-04-25T06:01:34.430Z,90.30
2023-04-25T06:04:05.423Z,89.70
2023-04-25T06:06:35.905Z,89.98
2023-04-25T06:09:05.525Z,90.46
2023-04-25T06:11:35.615Z,90.69
2023-04-25T06:14:08.358Z,90.29
2023-04-25T06:16:39.970Z,89.91
2023-04-25T06:19:14.230Z,89.52
2023-04-25T06:21:45.911Z,88.98
2023-04-25T06:24:17.227Z,88.08
2023-04-25T06:26:49.692Z,87.65
2023-04-25T06:29:20.539Z,87.15
2023-04-25T06:31:51.614Z,86.96
2023-04-25T06:34:22.589Z,87.49
2023-04-25T06:36:52.539Z,87.81
2023-04-25T06:39:24.728Z,87.88
2023-04-25T06:41:54.890Z,88.06
2023-04-25T06:44:45.700Z,88.41
2023-04-25T06:47:18.665Z,88.17
2023-04-25T06:49:48.235Z,88.66
2023-04-25T06:52:19.418Z,88.81
2023-04-25T06:54:50.720Z,88.46
2023-04-25T06:57:46.342Z,87.97
2023-04-25T07:00:40.925Z,87.57
2023-04-25T07:03:11.195Z,87.53
2023-04-25T07:05:41.839Z,87.36
2023-04-25T07:08:11.861Z,86.88
2023-04-25T07:10:41.513Z,87.39
2023-04-25T07:13:10.474Z,87.35
2023-04-25T07:15:40.877Z,87.20
2023-04-25T07:18:12.310Z,87.45
2023-04-25T07:20:42.541Z,86.56
2023-04-25T07:23:12.597Z,86.82
2023-04-25T07:25:42.128Z,87.70
2023-04-25T07:28:12.787Z,86.77
2023-04-25T07:30:42.242Z,86.58
2023-04-25T07:33:12.417Z,86.63
2023-04-25T07:35:42.814Z,87.47
2023-04-25T07:38:14.016Z,87.07
2023-04-25T07:40:44.262Z,87.50
2023-04-25T07:43:17.948Z,86.88
2023-04-25T07:45:54.290Z,87.61
2023-04-25T07:48:24.631Z,87.93
2023-04-25T07:50:55.504Z,88.03
2023-04-25T07:53:24.642Z,87.89
2023-04-25T07:55:57.243Z,87.74
2023-04-25T07:58:27.710Z,87.65
2023-04-25T08:01:01.279Z,87.81
2023-04-25T08:03:46.506Z,87.66
2023-04-25T08:06:27.187Z,87.90
2023-04-25T08:09:07.928Z,87.45
2023-04-25T08:11:41.520Z,87.88
2023-04-25T08:14:13.901Z,87.57
2023-04-25T08:16:43.625Z,87.42
2023-04-25T08:19:15.188Z,87.10
2023-04-25T08:21:44.905Z,87.13
2023-04-25T08:24:17.967Z,86.46
2023-04-25T08:26:48.316Z,86.01
2023-04-25T08:29:20.076Z,84.84
2023-04-25T08:31:54.739Z,85.11
2023-04-25T08:34:27.483Z,84.76
2023-04-25T08:37:00.077Z,82.85
2023-04-25T08:39:41.333Z,81.17
2023-04-25T08:42:30.376Z,80.49
2023-04-25T08:45:04.467Z,78.83
2023-04-25T08:47:46.317Z,79.29
2023-04-25T08:50:16.192Z,81.05
2023-04-25T08:52:47.726Z,80.90
2023-04-25T08:55:17.689Z,77.82
2023-04-25T08:57:48.037Z,77.40
2023-04-25T09:00:21.872Z,77.16
2023-04-25T09:02:52.119Z,78.62
2023-04-25T09:05:22.407Z,78.65
2023-04-25T09:07:55.009Z,77.41
2023-04-25T09:10:25.101Z,75.76
2023-04-25T09:13:14.358Z,73.74
2023-04-25T09:16:05.575Z,71.39
2023-04-25T09:18:56.399Z,71.75
2023-04-25T09:21:26.371Z,71.12
2023-04-25T09:23:56.500Z,73.23
2023-04-25T09:26:28.188Z,75.12
2023-04-25T09:29:10.262Z,72.42
2023-04-25T09:31:42.222Z,72.14
2023-04-25T09:34:18.273Z,72.43
2023-04-25T09:36:57.012Z,68.98
2023-04-25T09:40:09.583Z,66.06
2023-04-25T09:42:49.510Z,66.51
2023-04-25T09:45:18.536Z,67.21
2023-04-25T09:47:47.942Z,66.73
2023-04-25T09:50:20.958Z,65.65
2023-04-25T09:53:14.259Z,64.09
2023-04-25T09:55:58.428Z,63.25
2023-04-25T09:58:33.233Z,60.43
2023-04-25T10:01:07.062Z,59.51
2023-04-25T10:03:43.489Z,58.83
2023-04-25T10:06:25.685Z,59.16
2023-04-25T10:08:57.338Z,58.72
2023-04-25T10:11:27.726Z,56.75
2023-04-25T10:13:59.209Z,56.81
2023-04-25T10:16:30.256Z,58.86
2023-04-25T10:19:00.761Z,54.13
2023-04-25T10:21:35.296Z,51.79
2023-04-25T10:24:06.464Z,51.42
2023-04-25T10:26:36.309Z,52.40
2023-04-25T10:29:07.809Z,52.03
2023-04-25T10:31:49.153Z,52.77
2023-04-25T10:34:21.245Z,51.91
2023-04-25T10:36:54.715Z,51.55
2023-04-25T10:39:26.588Z,49.29
2023-04-25T10:41:56.737Z,49.89
2023-04-25T10:44:33.344Z,50.46
2023-04-25T10:47:09.569Z,51.03
2023-04-25T10:49:44.262Z,50.94
2023-04-25T10:52:21.227Z,49.69
2023-04-25T10:54:59.387Z,46.63
2023-04-25T10:57:43.125Z,47.61
2023-04-25T11:00:19.860Z,47.15
2023-04-25T11:02:54.688Z,48.96
2023-04-25T11:05:30.517Z,46.90
2023-04-25T11:08:11.881Z,46.93
2023-04-25T11:10:42.081Z,48.36
2023-04-25T11:13:13.734Z,48.31
2023-04-25T11:15:42.909Z,49.68
2023-04-25T11:18:19.889Z,49.20
2023-04-25T11:20:51.152Z,49.86
2023-04-25T11:23:20.399Z,50.27
2023-04-25T11:25:51.292Z,51.09
2023-04-25T11:28:27.337Z,51.75
2023-04-25T11:30:58.351Z,52.31
2023-04-25T11:33:29.972Z,53.66
2023-04-25T11:36:00.474Z,54.05
2023-04-25T11:38:33.816Z,53.71
2023-04-25T11:41:04.406Z,54.68
2023-04-25T11:43:36.243Z,57.33
2023-04-25T11:46:09.554Z,58.63
2023-04-25T11:48:43.799Z,60.23
2023-04-25T11:51:13.494Z,61.12
2023-04-25T11:53:46.954Z,61.24
2023-04-25T11:56:16.576Z,60.71
2023-04-25T11:58:57.446Z,61.31
2023-04-25T12:01:35.295Z,61.88
2023-04-25T12:04:21.801Z,62.65
2023-04-25T12:06:53.275Z,63.20
2023-04-25T12:09:34.669Z,63.27
2023-04-25T12:12:04.693Z,63.48
2023-04-25T12:14:37.083Z,62.67
2023-04-25T12:17:09.681Z,61.93
2023-04-25T12:19:42.968Z,61.68
2023-04-25T12:22:23.597Z,61.47
2023-04-25T12:24:55.465Z,60.83
2023-04-25T12:27:28.838Z,60.82
2023-04-25T12:30:00.649Z,61.63
2023-04-25T12:32:29.589Z,61.45
2023-04-25T12:35:01.275Z,62.10
2023-04-25T12:37:32.410Z,61.14
2023-04-25T12:40:02.236Z,61.61
2023-04-25T12:42:32.174Z,60.65
2023-04-25T12:45:01.509Z,60.73
2023-04-25T12:47:30.946Z,60.37
2023-04-25T12:49:59.733Z,59.55
2023-04-25T12:52:29.312Z,59.69
2023-04-25T12:54:58.297Z,58.51
2023-04-25T12:57:27.337Z,58.12
2023-04-25T13:00:10.258Z,58.86
2023-04-25T13:02:40.513Z,58.65
2023-04-25T13:05:10.494Z,58.06
2023-04-25T13:07:43.619Z,58.57
2023-04-25T13:10:13.044Z,58.03
2023-04-25T13:12:42.228Z,58.27
2023-04-25T13:15:12.595Z,58.61
2023-04-25T13:17:44.005Z,57.74
2023-04-25T13:20:16.371Z,58.50
2023-04-25T13:22:47.470Z,58.61
2023-04-25T13:25:18.032Z,57.35
2023-04-25T13:27:50.167Z,56.63
2023-04-25T13:30:20.600Z,56.84
2023-04-25T13:32:50.476Z,58.47
2023-04-25T13:35:21.983Z,59.52
2023-04-25T13:37:51.332Z,59.80
2023-04-25T13:40:21.541Z,61.27
2023-04-25T13:42:53.256Z,62.61
2023-04-25T13:45:23.302Z,63.42
2023-04-25T13:47:52.907Z,65.89
2023-04-25T13:50:21.864Z,68.19
2023-04-25T13:52:51.913Z,71.28
2023-04-25T13:55:22.002Z,72.47
2023-04-25T13:57:51.894Z,74.82
2023-04-25T14:00:21.613Z,76.25
2023-04-25T14:02:51.748Z,77.04
2023-04-25T14:05:20.834Z,77.57
2023-04-25T14:07:51.662Z,78.27
2023-04-25T14:10:21.949Z,79.38
2023-04-25T14:12:51.348Z,78.53
2023-04-25T14:15:21.542Z,78.90
2023-04-25T14:17:50.889Z,79.71
2023-04-25T14:20:22.607Z,79.76
2023-04-25T14:22:53.524Z,80.60
2023-04-25T14:25:22.591Z,81.00
2023-04-25T14:27:51.636Z,80.60
2023-04-25T14:30:23.239Z,80.78
2023-04-25T14:32:52.805Z,80.76
2023-04-25T14:35:22.621Z,81.43
2023-04-25T14:37:52.310Z,82.50
2023-04-25T14:40:24.514Z,82.38
2023-04-25T14:42:54.488Z,82.61
2023-04-25T14:45:24.717Z,83.76
2023-04-25T14:47:54.361Z,83.51
2023-04-25T14:50:24.551Z,84.36
2023-04-25T14:53:00.443Z,84.60
2023-04-25T14:55:30.442Z,84.56
2023-04-25T14:58:00.559Z,83.81
2023-04-25T15:00:29.649Z,83.55
2023-04-25T15:02:59.785Z,83.86
2023-04-25T15:05:31.231Z,83.30
2023-04-25T15:08:01.793Z,82.84
2023-04-25T15:10:31.484Z,82.96
2023-04-25T15:13:01.287Z,83.97
2023-04-25T15:15:31.461Z,84.49
2023-04-25T15:18:02.424Z,85.02
2023-04-25T15:20:31.913Z,85.43
2023-04-25T15:23:04.654Z,85.37
2023-04-25T15:25:34.927Z,86.11
2023-04-25T15:28:06.055Z,86.76
2023-04-25T15:30:36.004Z,87.27
2023-04-25T15:33:06.061Z,87.58
2023-04-25T15:35:35.836Z,88.27
2023-04-25T15:38:05.636Z,88.48
2023-04-25T15:40:35.267Z,88.23
2023-04-25T15:43:05.847Z,88.66
2023-04-25T15:45:36.530Z,88.52
2023-04-25T15:48:06.674Z,90.02
2023-04-25T15:50:37.819Z,90.09
2023-04-25T15:53:07.761Z,90.19
2023-04-25T15:55:37.930Z,90.20
2023-04-25T15:58:10.056Z,90.11
2023-04-25T16:00:41.675Z,89.86
2023-04-25T16:03:12.280Z,90.29
2023-04-25T16:05:42.145Z,90.56
2023-04-25T16:08:11.724Z,90.75
2023-04-25T16:10:42.419Z,90.05
2023-04-25T16:13:11.950Z,89.45
2023-04-25T16:15:41.419Z,89.68
2023-04-25T16:18:10.855Z,90.34
2023-04-25T16:20:40.601Z,89.75
2023-04-25T16:23:10.283Z,89.91
2023-04-25T16:25:39.977Z,89.58
2023-04-25T16:28:09.239Z,90.10
2023-04-25T16:30:39.033Z,89.98
2023-04-25T16:33:09.451Z,90.42
2023-04-25T16:35:39.457Z,90.07
2023-04-25T16:38:08.930Z,89.26
2023-04-25T16:40:38.955Z,89.25
2023-04-25T16:43:08.945Z,90.04
2023-04-25T16:45:38.332Z,89.45
2023-04-25T16:48:07.678Z,90.26
2023-04-25T16:50:38.571Z,90.36
2023-04-25T16:53:08.093Z,90.60
2023-04-25T16:55:37.454Z,90.19
2023-04-25T16:58:09.953Z,89.95
2023-04-25T17:00:40.876Z,90.16
2023-04-25T17:03:11.059Z,90.26
2023-04-25T17:05:41.012Z,89.84
2023-04-25T17:08:10.562Z,89.27
2023-04-25T17:10:40.812Z,88.81
2023-04-25T17:13:11.193Z,88.80
2023-04-25T17:15:41.412Z,88.06
2023-04-25T17:18:12.126Z,87.95
2023-04-25T17:20:41.506Z,87.14
2023-04-25T17:23:10.794Z,86.71
2023-04-25T17:25:41.248Z,87.22
2023-04-25T17:28:10.282Z,87.13
2023-04-25T17:30:43.432Z,87.36
2023-04-25T17:33:13.790Z,87.99
2023-04-25T17:35:42.884Z,87.60
2023-04-25T17:38:15.193Z,87.48
2023-04-25T17:40:44.472Z,87.70
2023-04-25T17:43:14.067Z,87.62
2023-04-25T17:45:43.394Z,87.78
2023-04-25T17:48:13.039Z,87.67
2023-04-25T17:50:42.493Z,88.18
2023-04-25T17:53:11.503Z,87.99
2023-04-25T17:55:44.393Z,88.46
2023-04-25T17:58:16.641Z,88.06
2023-04-25T18:00:49.002Z,89.20
2023-04-25T18:03:18.799Z,89.78
2023-04-25T18:05:48.107Z,89.58
2023-04-25T18:08:18.229Z,88.96
2023-04-25T18:10:50.149Z,88.62
2023-04-25T18:13:21.811Z,87.96
2023-04-25T18:15:52.102Z,88.03
2023-04-25T18:18:26.646Z,88.05
2023-04-25T18:20:58.573Z,88.26
2023-04-25T18:23:28.246Z,88.10
2023-04-25T18:25:57.031Z,88.44
2023-04-25T18:28:25.984Z,88.35
2023-04-25T18:30:56.069Z,88.08
2023-04-25T18:33:25.789Z,88.77
2023-04-25T18:35:59.088Z,88.60
2023-04-25T18:41:15.535Z,89.43
2023-04-25T18:43:56.641Z,90.15
2023-04-25T18:46:26.487Z,90.48
2023-04-25T18:48:55.694Z,90.65
2023-04-25T18:51:32.013Z,90.82
2023-04-25T18:54:02.612Z,90.80
2023-04-25T18:56:31.545Z,90.56
2023-04-25T18:59:01.065Z,91.02
2023-04-25T19:01:30.931Z,90.91
2023-04-25T19:04:06.464Z,90.66
2023-04-25T19:06:38.132Z,90.81
2023-04-25T19:09:10.617Z,90.56
2023-04-25T19:11:44.358Z,90.41
2023-04-25T19:14:15.019Z,90.26
2023-04-25T19:16:44.639Z,89.96
2023-04-25T19:19:14.116Z,89.97
2023-04-25T19:21:43.621Z,89.92
2023-04-25T19:24:13.029Z,90.10
2023-04-25T19:26:42.445Z,90.25
2023-04-25T19:29:17.742Z,90.28
2023-04-25T19:31:46.966Z,90.15
2023-04-25T19:34:16.861Z,90.32
2023-04-25T19:36:46.772Z,90.63
2023-04-25T19:39:16.736Z,90.11
2023-04-25T19:41:46.726Z,91.10
2023-04-25T19:44:16.745Z,91.07
2023-04-25T19:46:47.346Z,91.48
2023-04-25T19:49:17.298Z,91.81
2023-04-25T19:51:46.923Z,91.68
2023-04-25T19:54:16.465Z,92.32
2023-04-25T19:56:46.556Z,92.19
2023-04-25T19:59:16.586Z,92.70
2023-04-25T20:01:46.467Z,92.51
2023-04-25T20:04:15.833Z,92.54
2023-04-25T20:06:45.330Z,92.11
2023-04-25T20:09:16.896Z,91.39
2023-04-25T20:11:49.133Z,91.44
2023-04-25T20:14:20.673Z,91.20
2023-04-25T20:16:51.148Z,91.39
2023-04-25T20:19:20.527Z,91.08
2023-04-25T20:21:50.558Z,91.25
2023-04-25T20:24:19.585Z,91.32
2023-04-25T20:26:50.233Z,91.11
2023-04-25T20:29:19.681Z,91.01
2023-04-25T20:31:51.598Z,91.32
2023-04-25T20:34:22.777Z,91.94
2023-04-25T20:36:53.512Z,92.27
2023-04-25T20:39:23.094Z,92.66
2023-04-25T20:41:53.400Z,92.34
2023-04-25T20:44:23.963Z,91.72
2023-04-25T20:46:53.292Z,91.37
2023-04-25T20:49:23.268Z,91.04
2023-04-25T20:51:53.101Z,90.65
2023-04-25T20:54:22.430Z,90.27
2023-04-25T20:56:52.660Z,90.34
2023-04-25T20:59:22.353Z,90.02
2023-04-25T21:01:51.973Z,89.83
2023-04-25T21:04:22.738Z,90.25
2023-04-25T21:06:52.465Z,90.10
2023-04-25T21:09:21.560Z,90.37
2023-04-25T21:11:52.025Z,89.33
2023-04-25T21:14:23.271Z,89.15
2023-04-25T21:16:53.641Z,88.38
2023-04-25T21:19:23.606Z,88.03
2023-04-25T21:21:53.556Z,87.97
2023-04-25T21:24:22.731Z,87.78
2023-04-25T21:26:53.782Z,87.73
2023-04-25T21:29:23.706Z,88.83
2023-04-25T21:31:53.508Z,89.45
2023-04-25T21:34:23.898Z,90.41
2023-04-25T21:36:53.085Z,90.49
2023-04-25T21:39:22.427Z,90.71
2023-04-25T21:41:51.727Z,91.05
2023-04-25T21:44:20.668Z,91.11
2023-04-25T21:46:50.365Z,91.01
2023-04-25T21:49:23.598Z,91.20
2023-04-25T21:51:53.849Z,91.13
2023-04-25T21:54:23.355Z,91.10
2023-04-25T21:56:52.872Z,91.12
2023-04-25T21:59:26.238Z,90.97
2023-04-25T22:01:55.852Z,91.23
2023-04-25T22:04:25.777Z,91.19
2023-04-25T22:06:55.897Z,91.78
2023-04-25T22:09:25.589Z,91.94
2023-04-25T22:11:55.424Z,92.07
2023-04-25T22:14:27.168Z,92.38
2023-04-25T22:16:56.656Z,92.53
2023-04-25T22:19:26.706Z,92.80
2023-04-25T22:21:57.241Z,92.97
2023-04-25T22:24:30.701Z,92.98
2023-04-25T22:27:01.444Z,93.19
2023-04-25T22:29:31.814Z,92.98
2023-04-25T22:32:02.296Z,93.23
2023-04-25T22:34:33.692Z,92.64
2023-04-25T22:37:02.707Z,93.02
2023-04-25T22:39:32.689Z,92.86
2023-04-25T22:42:04.027Z,92.10
2023-04-25T22:44:34.602Z,91.81
2023-04-25T22:47:04.363Z,91.15
2023-04-25T22:49:34.450Z,90.69
2023-04-25T22:52:04.814Z,90.91
2023-04-25T22:54:35.400Z,90.66
2023-04-25T22:57:08.629Z,90.19
2023-04-25T22:59:40.141Z,89.94
2023-04-25T23:02:09.636Z,89.26
2023-04-25T23:04:39.701Z,89.66
2023-04-25T23:07:09.735Z,89.64
2023-04-25T23:09:39.261Z,89.41
2023-04-25T23:12:10.415Z,89.16
2023-04-25T23:14:40.203Z,89.51
2023-04-25T23:17:09.473Z,89.09
2023-04-25T23:19:39.268Z,89.28
2023-04-25T23:22:08.937Z,89.16
2023-04-25T23:24:41.680Z,89.20
2023-04-25T23:27:11.284Z,89.38
2023-04-25T23:29:40.962Z,89.52
2023-04-25T23:32:10.794Z,88.99
2023-04-25T23:34:42.446Z,88.79
2023-04-25T23:37:12.138Z,88.58
2023-04-25T23:39:41.614Z,89.06
2023-04-25T23:42:11.535Z,88.91
2023-04-25T23:44:41.971Z,88.51
2023-04-25T23:47:14.438Z,88.64
2023-04-25T23:49:44.557Z,88.50
2023-04-25T23:52:14.052Z,88.42
2023-04-25T23:54:43.586Z,88.27
2023-04-25T23:57:13.646Z,88.00
2023-04-25T23:59:47.549Z,87.74
